sensor_id;sensor_type;location;lat;lon;timestamp;P1;durP1;ratioP1;P2;durP2;ratioP2
76606;SDS011;65498;50.916;4.698;2023-02-22T00:00:24;8.43;;;4.97;;
76606;SDS011;65498;50.916;4.698;2023-02-22T00:03:15;8.55;;;4.45;;
76606;SDS011;65498;50.916;4.698;2023-02-22T00:05:52;9.18;;;4.62;;
76606;SDS011;65498;50.916;4.698;2023-02-22T00:08:24;8.35;;;4.42;;
76606;SDS011;65498;50.916;4.698;2023-02-22T00:10:59;9.05;;;4.67;;
76606;SDS011;65498;50.916;4.698;2023-02-22T00:13:33;7.87;;;4.03;;
76606;SDS011;65498;50.916;4.698;2023-02-22T00:16:02;8.40;;;4.62;;
76606;SDS011;65498;50.916;4.698;2023-02-22T00:18:30;7.90;;;4.45;;
76606;SDS011;65498;50.916;4.698;2023-02-22T00:20:58;9.15;;;4.85;;
76606;SDS011;65498;50.916;4.698;2023-02-22T00:23:27;8.77;;;4.77;;
76606;SDS011;65498;50.916;4.698;2023-02-22T00:25:57;8.55;;;4.58;;
76606;SDS011;65498;50.916;4.698;2023-02-22T00:28:26;9.03;;;5.15;;
76606;SDS011;65498;50.916;4.698;2023-02-22T00:30:55;7.83;;;4.30;;
76606;SDS011;65498;50.916;4.698;2023-02-22T00:33:24;8.53;;;4.33;;
76606;SDS011;65498;50.916;4.698;2023-02-22T00:35:52;8.28;;;4.60;;
76606;SDS011;65498;50.916;4.698;2023-02-22T00:38:19;9.33;;;4.45;;
76606;SDS011;65498;50.916;4.698;2023-02-22T00:40:47;9.23;;;4.62;;
76606;SDS011;65498;50.916;4.698;2023-02-22T00:43:14;8.13;;;4.40;;
76606;SDS011;65498;50.916;4.698;2023-02-22T00:45:42;8.10;;;4.50;;
76606;SDS011;65498;50.916;4.698;2023-02-22T00:48:10;8.25;;;4.05;;
76606;SDS011;65498;50.916;4.698;2023-02-22T00:50:38;8.93;;;5.03;;
76606;SDS011;65498;50.916;4.698;2023-02-22T00:53:05;7.72;;;4.20;;
76606;SDS011;65498;50.916;4.698;2023-02-22T00:55:35;8.45;;;4.47;;
76606;SDS011;65498;50.916;4.698;2023-02-22T00:58:04;7.50;;;4.12;;
76606;SDS011;65498;50.916;4.698;2023-02-22T01:00:33;7.72;;;4.37;;
76606;SDS011;65498;50.916;4.698;2023-02-22T01:03:03;9.78;;;4.60;;
76606;SDS011;65498;50.916;4.698;2023-02-22T01:05:32;8.23;;;4.37;;
76606;SDS011;65498;50.916;4.698;2023-02-22T01:08:00;8.58;;;4.80;;
76606;SDS011;65498;50.916;4.698;2023-02-22T01:10:31;8.68;;;4.65;;
76606;SDS011;65498;50.916;4.698;2023-02-22T01:12:59;7.83;;;4.60;;
76606;SDS011;65498;50.916;4.698;2023-02-22T01:15:29;12.25;;;4.65;;
76606;SDS011;65498;50.916;4.698;2023-02-22T01:17:57;7.95;;;4.55;;
76606;SDS011;65498;50.916;4.698;2023-02-22T01:20:26;8.15;;;4.80;;
76606;SDS011;65498;50.916;4.698;2023-02-22T01:22:57;8.78;;;4.62;;
76606;SDS011;65498;50.916;4.698;2023-02-22T01:25:28;7.80;;;4.17;;
76606;SDS011;65498;50.916;4.698;2023-02-22T01:27:57;9.63;;;5.23;;
76606;SDS011;65498;50.916;4.698;2023-02-22T01:30:28;17.45;;;8.63;;
76606;SDS011;65498;50.916;4.698;2023-02-22T01:32:57;17.95;;;8.33;;
76606;SDS011;65498;50.916;4.698;2023-02-22T01:35:32;15.90;;;7.45;;
76606;SDS011;65498;50.916;4.698;2023-02-22T01:38:00;16.25;;;7.30;;
76606;SDS011;65498;50.916;4.698;2023-02-22T01:40:33;14.33;;;7.53;;
76606;SDS011;65498;50.916;4.698;2023-02-22T01:42:59;20.20;;;7.80;;
76606;SDS011;65498;50.916;4.698;2023-02-22T01:48:19;14.90;;;8.45;;
76606;SDS011;65498;50.916;4.698;2023-02-22T01:50:44;15.68;;;7.33;;
76606;SDS011;65498;50.916;4.698;2023-02-22T01:53:33;14.83;;;6.60;;
76606;SDS011;65498;50.916;4.698;2023-02-22T01:56:02;13.95;;;8.08;;
76606;SDS011;65498;50.916;4.698;2023-02-22T01:58:31;16.35;;;7.22;;
76606;SDS011;65498;50.916;4.698;2023-02-22T02:01:01;13.72;;;7.50;;
76606;SDS011;65498;50.916;4.698;2023-02-22T02:03:30;17.35;;;7.00;;
76606;SDS011;65498;50.916;4.698;2023-02-22T02:06:00;17.82;;;6.67;;
76606;SDS011;65498;50.916;4.698;2023-02-22T02:08:32;13.68;;;6.90;;
76606;SDS011;65498;50.916;4.698;2023-02-22T02:11:04;12.98;;;6.62;;
76606;SDS011;65498;50.916;4.698;2023-02-22T02:13:34;13.75;;;6.85;;
76606;SDS011;65498;50.916;4.698;2023-02-22T02:16:02;11.88;;;6.35;;
76606;SDS011;65498;50.916;4.698;2023-02-22T02:18:30;15.15;;;7.10;;
76606;SDS011;65498;50.916;4.698;2023-02-22T02:24:05;12.90;;;6.22;;
76606;SDS011;65498;50.916;4.698;2023-02-22T02:32:02;12.18;;;6.22;;
76606;SDS011;65498;50.916;4.698;2023-02-22T02:42:40;10.55;;;5.62;;
76606;SDS011;65498;50.916;4.698;2023-02-22T02:45:12;9.95;;;5.75;;
76606;SDS011;65498;50.916;4.698;2023-02-22T02:47:42;10.10;;;5.50;;
76606;SDS011;65498;50.916;4.698;2023-02-22T02:50:16;10.80;;;5.33;;
76606;SDS011;65498;50.916;4.698;2023-02-22T02:52:48;11.00;;;5.75;;
76606;SDS011;65498;50.916;4.698;2023-02-22T02:55:17;12.60;;;5.15;;
76606;SDS011;65498;50.916;4.698;2023-02-22T02:57:45;10.70;;;5.17;;
76606;SDS011;65498;50.916;4.698;2023-02-22T03:00:14;11.05;;;5.22;;
76606;SDS011;65498;50.916;4.698;2023-02-22T03:08:50;8.93;;;4.92;;
76606;SDS011;65498;50.916;4.698;2023-02-22T03:11:28;8.93;;;4.45;;
76606;SDS011;65498;50.916;4.698;2023-02-22T03:25:04;10.15;;;4.95;;
76606;SDS011;65498;50.916;4.698;2023-02-22T03:27:33;8.98;;;4.60;;
76606;SDS011;65498;50.916;4.698;2023-02-22T03:30:10;9.95;;;5.12;;
76606;SDS011;65498;50.916;4.698;2023-02-22T03:32:44;9.13;;;4.55;;
76606;SDS011;65498;50.916;4.698;2023-02-22T03:35:15;9.53;;;4.83;;
76606;SDS011;65498;50.916;4.698;2023-02-22T03:37:48;9.55;;;4.05;;
76606;SDS011;65498;50.916;4.698;2023-02-22T03:40:33;8.38;;;4.28;;
76606;SDS011;65498;50.916;4.698;2023-02-22T03:42:51;8.93;;;4.00;;
76606;SDS011;65498;50.916;4.698;2023-02-22T03:45:26;8.98;;;4.45;;
76606;SDS011;65498;50.916;4.698;2023-02-22T03:48:03;8.03;;;4.28;;
76606;SDS011;65498;50.916;4.698;2023-02-22T03:50:35;8.98;;;4.53;;
76606;SDS011;65498;50.916;4.698;2023-02-22T03:53:03;9.68;;;4.15;;
76606;SDS011;65498;50.916;4.698;2023-02-22T03:55:32;8.28;;;4.55;;
76606;SDS011;65498;50.916;4.698;2023-02-22T03:58:01;9.23;;;5.08;;
76606;SDS011;65498;50.916;4.698;2023-02-22T04:00:33;7.60;;;3.98;;
76606;SDS011;65498;50.916;4.698;2023-02-22T04:03:02;8.55;;;4.05;;
76606;SDS011;65498;50.916;4.698;2023-02-22T04:05:30;7.62;;;3.98;;
76606;SDS011;65498;50.916;4.698;2023-02-22T04:07:57;7.87;;;4.30;;
76606;SDS011;65498;50.916;4.698;2023-02-22T04:10:25;7.03;;;3.70;;
76606;SDS011;65498;50.916;4.698;2023-02-22T04:12:52;7.55;;;3.55;;
76606;SDS011;65498;50.916;4.698;2023-02-22T04:15:21;8.03;;;3.80;;
76606;SDS011;65498;50.916;4.698;2023-02-22T04:17:49;7.15;;;4.00;;
76606;SDS011;65498;50.916;4.698;2023-02-22T04:20:17;7.55;;;3.80;;
76606;SDS011;65498;50.916;4.698;2023-02-22T04:25:14;7.47;;;3.55;;
76606;SDS011;65498;50.916;4.698;2023-02-22T04:27:42;8.38;;;4.17;;
76606;SDS011;65498;50.916;4.698;2023-02-22T04:30:10;7.95;;;3.92;;
76606;SDS011;65498;50.916;4.698;2023-02-22T04:32:38;8.55;;;4.00;;
76606;SDS011;65498;50.916;4.698;2023-02-22T04:35:06;8.20;;;3.60;;
76606;SDS011;65498;50.916;4.698;2023-02-22T04:37:34;8.13;;;3.85;;
76606;SDS011;65498;50.916;4.698;2023-02-22T04:40:02;8.85;;;4.08;;
76606;SDS011;65498;50.916;4.698;2023-02-22T04:42:36;8.30;;;3.65;;
76606;SDS011;65498;50.916;4.698;2023-02-22T04:45:05;7.40;;;3.70;;
76606;SDS011;65498;50.916;4.698;2023-02-22T04:47:34;8.23;;;3.83;;
76606;SDS011;65498;50.916;4.698;2023-02-22T04:50:04;8.73;;;3.37;;
76606;SDS011;65498;50.916;4.698;2023-02-22T04:52:32;7.25;;;3.72;;
76606;SDS011;65498;50.916;4.698;2023-02-22T04:55:00;6.72;;;3.35;;
76606;SDS011;65498;50.916;4.698;2023-02-22T04:57:29;7.40;;;3.50;;
76606;SDS011;65498;50.916;4.698;2023-02-22T04:59:57;6.87;;;3.55;;
76606;SDS011;65498;50.916;4.698;2023-02-22T05:02:24;7.53;;;3.60;;
76606;SDS011;65498;50.916;4.698;2023-02-22T05:04:52;7.45;;;3.33;;
76606;SDS011;65498;50.916;4.698;2023-02-22T05:07:20;7.03;;;3.35;;
76606;SDS011;65498;50.916;4.698;2023-02-22T05:09:47;8.03;;;3.62;;
76606;SDS011;65498;50.916;4.698;2023-02-22T05:12:15;7.08;;;3.52;;
76606;SDS011;65498;50.916;4.698;2023-02-22T05:14:42;6.65;;;3.42;;
76606;SDS011;65498;50.916;4.698;2023-02-22T05:17:10;7.03;;;3.52;;
76606;SDS011;65498;50.916;4.698;2023-02-22T05:19:38;7.15;;;3.92;;
76606;SDS011;65498;50.916;4.698;2023-02-22T05:22:06;7.75;;;3.50;;
76606;SDS011;65498;50.916;4.698;2023-02-22T05:24:34;8.03;;;3.67;;
76606;SDS011;65498;50.916;4.698;2023-02-22T05:27:02;6.28;;;3.20;;
76606;SDS011;65498;50.916;4.698;2023-02-22T05:29:29;8.53;;;3.47;;
76606;SDS011;65498;50.916;4.698;2023-02-22T05:31:57;7.45;;;3.20;;
76606;SDS011;65498;50.916;4.698;2023-02-22T05:34:24;7.00;;;3.33;;
76606;SDS011;65498;50.916;4.698;2023-02-22T05:36:52;6.85;;;3.33;;
76606;SDS011;65498;50.916;4.698;2023-02-22T05:39:19;6.72;;;3.47;;
76606;SDS011;65498;50.916;4.698;2023-02-22T05:41:47;6.47;;;3.08;;
76606;SDS011;65498;50.916;4.698;2023-02-22T05:44:14;7.10;;;3.50;;
76606;SDS011;65498;50.916;4.698;2023-02-22T05:46:42;6.53;;;3.02;;
76606;SDS011;65498;50.916;4.698;2023-02-22T05:49:09;5.83;;;2.92;;
76606;SDS011;65498;50.916;4.698;2023-02-22T05:51:37;6.05;;;2.92;;
76606;SDS011;65498;50.916;4.698;2023-02-22T05:54:04;7.10;;;2.90;;
76606;SDS011;65498;50.916;4.698;2023-02-22T05:56:32;6.95;;;3.27;;
76606;SDS011;65498;50.916;4.698;2023-02-22T05:59:01;6.45;;;3.20;;
76606;SDS011;65498;50.916;4.698;2023-02-22T06:01:28;7.08;;;2.95;;
76606;SDS011;65498;50.916;4.698;2023-02-22T06:03:56;6.20;;;2.98;;
76606;SDS011;65498;50.916;4.698;2023-02-22T06:06:23;6.30;;;2.90;;
76606;SDS011;65498;50.916;4.698;2023-02-22T06:08:51;7.05;;;3.15;;
76606;SDS011;65498;50.916;4.698;2023-02-22T06:11:18;6.30;;;3.00;;
76606;SDS011;65498;50.916;4.698;2023-02-22T06:13:52;7.05;;;3.25;;
76606;SDS011;65498;50.916;4.698;2023-02-22T06:16:20;6.95;;;3.00;;
76606;SDS011;65498;50.916;4.698;2023-02-22T06:18:48;6.58;;;2.83;;
76606;SDS011;65498;50.916;4.698;2023-02-22T06:21:16;6.45;;;2.90;;
76606;SDS011;65498;50.916;4.698;2023-02-22T06:23:43;6.37;;;3.27;;
76606;SDS011;65498;50.916;4.698;2023-02-22T06:26:11;7.15;;;3.20;;
76606;SDS011;65498;50.916;4.698;2023-02-22T06:28:46;5.70;;;3.02;;
76606;SDS011;65498;50.916;4.698;2023-02-22T06:31:14;7.30;;;3.37;;
76606;SDS011;65498;50.916;4.698;2023-02-22T06:33:42;6.53;;;2.90;;
76606;SDS011;65498;50.916;4.698;2023-02-22T06:36:09;7.67;;;2.72;;
76606;SDS011;65498;50.916;4.698;2023-02-22T06:38:37;6.22;;;3.25;;
76606;SDS011;65498;50.916;4.698;2023-02-22T06:41:04;6.83;;;2.95;;
76606;SDS011;65498;50.916;4.698;2023-02-22T06:46:01;7.47;;;2.72;;
76606;SDS011;65498;50.916;4.698;2023-02-22T06:48:28;5.85;;;2.67;;
76606;SDS011;65498;50.916;4.698;2023-02-22T06:50:56;6.45;;;3.50;;
76606;SDS011;65498;50.916;4.698;2023-02-22T06:53:23;6.10;;;2.92;;
76606;SDS011;65498;50.916;4.698;2023-02-22T06:55:52;6.17;;;3.08;;
76606;SDS011;65498;50.916;4.698;2023-02-22T06:58:20;5.80;;;2.83;;
76606;SDS011;65498;50.916;4.698;2023-02-22T07:00:47;6.87;;;2.90;;
76606;SDS011;65498;50.916;4.698;2023-02-22T07:03:15;7.00;;;3.33;;
76606;SDS011;65498;50.916;4.698;2023-02-22T07:05:42;6.55;;;3.20;;
76606;SDS011;65498;50.916;4.698;2023-02-22T07:08:10;6.22;;;2.90;;
76606;SDS011;65498;50.916;4.698;2023-02-22T07:10:39;6.12;;;3.10;;
76606;SDS011;65498;50.916;4.698;2023-02-22T07:13:06;6.55;;;2.80;;
76606;SDS011;65498;50.916;4.698;2023-02-22T07:15:34;6.10;;;2.72;;
76606;SDS011;65498;50.916;4.698;2023-02-22T07:18:02;6.50;;;2.92;;
76606;SDS011;65498;50.916;4.698;2023-02-22T07:20:30;6.10;;;3.05;;
76606;SDS011;65498;50.916;4.698;2023-02-22T07:22:58;5.78;;;2.52;;
76606;SDS011;65498;50.916;4.698;2023-02-22T07:25:26;5.90;;;2.55;;
76606;SDS011;65498;50.916;4.698;2023-02-22T07:27:53;5.37;;;2.45;;
76606;SDS011;65498;50.916;4.698;2023-02-22T07:30:22;6.40;;;2.67;;
76606;SDS011;65498;50.916;4.698;2023-02-22T07:32:52;5.50;;;2.60;;
76606;SDS011;65498;50.916;4.698;2023-02-22T07:35:22;5.78;;;2.60;;
76606;SDS011;65498;50.916;4.698;2023-02-22T07:37:54;9.80;;;3.27;;
76606;SDS011;65498;50.916;4.698;2023-02-22T07:40:22;6.95;;;3.05;;
76606;SDS011;65498;50.916;4.698;2023-02-22T07:42:52;5.95;;;2.72;;
76606;SDS011;65498;50.916;4.698;2023-02-22T07:45:28;5.37;;;2.58;;
76606;SDS011;65498;50.916;4.698;2023-02-22T07:47:57;10.88;;;3.58;;
76606;SDS011;65498;50.916;4.698;2023-02-22T07:50:28;5.50;;;2.30;;
76606;SDS011;65498;50.916;4.698;2023-02-22T07:52:56;5.90;;;2.55;;
76606;SDS011;65498;50.916;4.698;2023-02-22T07:55:27;5.78;;;2.55;;
76606;SDS011;65498;50.916;4.698;2023-02-22T07:57:57;7.17;;;2.70;;
76606;SDS011;65498;50.916;4.698;2023-02-22T08:00:32;10.15;;;2.35;;
76606;SDS011;65498;50.916;4.698;2023-02-22T08:03:03;6.42;;;3.15;;
76606;SDS011;65498;50.916;4.698;2023-02-22T08:05:28;5.67;;;2.55;;
76606;SDS011;65498;50.916;4.698;2023-02-22T08:07:57;5.65;;;2.60;;
76606;SDS011;65498;50.916;4.698;2023-02-22T08:10:24;6.05;;;2.50;;
76606;SDS011;65498;50.916;4.698;2023-02-22T08:12:53;8.10;;;2.40;;
76606;SDS011;65498;50.916;4.698;2023-02-22T08:15:26;5.97;;;2.75;;
76606;SDS011;65498;50.916;4.698;2023-02-22T08:17:58;5.28;;;2.40;;
76606;SDS011;65498;50.916;4.698;2023-02-22T08:20:27;6.37;;;2.67;;
76606;SDS011;65498;50.916;4.698;2023-02-22T08:22:55;6.40;;;2.60;;
76606;SDS011;65498;50.916;4.698;2023-02-22T08:25:24;6.15;;;2.30;;
76606;SDS011;65498;50.916;4.698;2023-02-22T08:28:09;5.70;;;2.58;;
76606;SDS011;65498;50.916;4.698;2023-02-22T08:33:01;4.85;;;2.20;;
76606;SDS011;65498;50.916;4.698;2023-02-22T08:35:30;5.20;;;2.30;;
76606;SDS011;65498;50.916;4.698;2023-02-22T08:37:59;5.20;;;2.20;;
76606;SDS011;65498;50.916;4.698;2023-02-22T08:40:29;5.53;;;2.42;;
76606;SDS011;65498;50.916;4.698;2023-02-22T08:42:58;6.00;;;2.70;;
76606;SDS011;65498;50.916;4.698;2023-02-22T08:45:27;5.90;;;2.50;;
76606;SDS011;65498;50.916;4.698;2023-02-22T08:47:55;7.60;;;2.75;;
76606;SDS011;65498;50.916;4.698;2023-02-22T08:50:28;7.87;;;2.72;;
76606;SDS011;65498;50.916;4.698;2023-02-22T08:52:59;6.30;;;2.92;;
76606;SDS011;65498;50.916;4.698;2023-02-22T08:55:32;6.00;;;2.67;;
76606;SDS011;65498;50.916;4.698;2023-02-22T08:58:00;5.75;;;2.47;;
76606;SDS011;65498;50.916;4.698;2023-02-22T09:00:30;7.47;;;2.80;;
76606;SDS011;65498;50.916;4.698;2023-02-22T09:02:59;8.00;;;2.60;;
76606;SDS011;65498;50.916;4.698;2023-02-22T09:05:30;6.90;;;2.50;;
76606;SDS011;65498;50.916;4.698;2023-02-22T09:07:59;5.95;;;2.65;;
76606;SDS011;65498;50.916;4.698;2023-02-22T09:10:28;6.17;;;2.40;;
76606;SDS011;65498;50.916;4.698;2023-02-22T09:12:57;6.33;;;2.52;;
76606;SDS011;65498;50.916;4.698;2023-02-22T09:15:29;5.90;;;2.52;;
76606;SDS011;65498;50.916;4.698;2023-02-22T09:17:57;5.87;;;2.40;;
76606;SDS011;65498;50.916;4.698;2023-02-22T09:20:24;6.95;;;2.40;;
76606;SDS011;65498;50.916;4.698;2023-02-22T09:22:53;5.85;;;2.35;;
76606;SDS011;65498;50.916;4.698;2023-02-22T09:25:21;5.25;;;2.62;;
76606;SDS011;65498;50.916;4.698;2023-02-22T09:27:50;5.35;;;2.25;;
76606;SDS011;65498;50.916;4.698;2023-02-22T09:30:21;6.03;;;2.63;;
76606;SDS011;65498;50.916;4.698;2023-02-22T09:32:50;5.80;;;2.30;;
76606;SDS011;65498;50.916;4.698;2023-02-22T09:35:20;5.80;;;2.25;;
76606;SDS011;65498;50.916;4.698;2023-02-22T09:37:55;6.58;;;2.58;;
76606;SDS011;65498;50.916;4.698;2023-02-22T09:40:25;5.53;;;2.15;;
76606;SDS011;65498;50.916;4.698;2023-02-22T09:42:59;5.87;;;2.65;;
76606;SDS011;65498;50.916;4.698;2023-02-22T09:45:35;6.87;;;2.55;;
76606;SDS011;65498;50.916;4.698;2023-02-22T09:48:01;5.55;;;2.50;;
76606;SDS011;65498;50.916;4.698;2023-02-22T09:50:40;5.70;;;2.42;;
76606;SDS011;65498;50.916;4.698;2023-02-22T09:55:47;6.15;;;2.40;;
76606;SDS011;65498;50.916;4.698;2023-02-22T10:00:43;5.60;;;2.55;;
76606;SDS011;65498;50.916;4.698;2023-02-22T10:03:21;5.87;;;2.62;;
76606;SDS011;65498;50.916;4.698;2023-02-22T10:06:10;5.15;;;2.15;;
76606;SDS011;65498;50.916;4.698;2023-02-22T10:08:40;6.08;;;2.45;;
76606;SDS011;65498;50.916;4.698;2023-02-22T10:19:24;5.30;;;2.02;;
76606;SDS011;65498;50.916;4.698;2023-02-22T10:21:55;6.45;;;2.40;;
76606;SDS011;65498;50.916;4.698;2023-02-22T10:24:43;6.50;;;2.20;;
76606;SDS011;65498;50.916;4.698;2023-02-22T10:27:19;6.00;;;2.30;;
76606;SDS011;65498;50.916;4.698;2023-02-22T10:29:45;5.25;;;2.30;;
76606;SDS011;65498;50.916;4.698;2023-02-22T10:32:18;6.20;;;2.50;;
76606;SDS011;65498;50.916;4.698;2023-02-22T10:34:45;6.67;;;2.40;;
76606;SDS011;65498;50.916;4.698;2023-02-22T10:37:29;5.67;;;2.20;;
76606;SDS011;65498;50.916;4.698;2023-02-22T10:40:11;5.90;;;2.35;;
76606;SDS011;65498;50.916;4.698;2023-02-22T10:42:36;7.60;;;2.30;;
76606;SDS011;65498;50.916;4.698;2023-02-22T10:45:04;6.00;;;2.60;;
76606;SDS011;65498;50.916;4.698;2023-02-22T10:47:34;5.58;;;2.33;;
76606;SDS011;65498;50.916;4.698;2023-02-22T10:50:02;6.45;;;2.58;;
76606;SDS011;65498;50.916;4.698;2023-02-22T10:52:31;5.83;;;2.17;;
76606;SDS011;65498;50.916;4.698;2023-02-22T10:55:00;6.05;;;2.30;;
76606;SDS011;65498;50.916;4.698;2023-02-22T10:57:31;5.35;;;2.50;;
76606;SDS011;65498;50.916;4.698;2023-02-22T11:00:15;6.15;;;2.37;;
76606;SDS011;65498;50.916;4.698;2023-02-22T11:02:53;4.92;;;1.90;;
76606;SDS011;65498;50.916;4.698;2023-02-22T11:05:30;5.90;;;2.55;;
76606;SDS011;65498;50.916;4.698;2023-02-22T11:11:01;7.05;;;3.45;;
76606;SDS011;65498;50.916;4.698;2023-02-22T11:13:32;7.25;;;3.05;;
76606;SDS011;65498;50.916;4.698;2023-02-22T11:16:23;8.50;;;4.20;;
76606;SDS011;65498;50.916;4.698;2023-02-22T11:19:11;6.62;;;3.22;;
76606;SDS011;65498;50.916;4.698;2023-02-22T11:21:38;6.78;;;3.08;;
76606;SDS011;65498;50.916;4.698;2023-02-22T11:24:07;7.08;;;3.20;;
76606;SDS011;65498;50.916;4.698;2023-02-22T11:26:39;7.33;;;3.47;;
76606;SDS011;65498;50.916;4.698;2023-02-22T11:29:09;6.90;;;3.37;;
76606;SDS011;65498;50.916;4.698;2023-02-22T11:31:42;7.58;;;3.80;;
76606;SDS011;65498;50.916;4.698;2023-02-22T11:35:02;6.50;;;3.33;;
76606;SDS011;65498;50.916;4.698;2023-02-22T11:39:41;6.97;;;3.22;;
76606;SDS011;65498;50.916;4.698;2023-02-22T11:42:25;7.60;;;3.60;;
76606;SDS011;65498;50.916;4.698;2023-02-22T11:47:50;6.50;;;3.40;;
76606;SDS011;65498;50.916;4.698;2023-02-22T11:50:21;6.70;;;3.10;;
76606;SDS011;65498;50.916;4.698;2023-02-22T11:52:51;8.05;;;3.70;;
76606;SDS011;65498;50.916;4.698;2023-02-22T11:55:33;7.60;;;3.20;;
76606;SDS011;65498;50.916;4.698;2023-02-22T11:58:04;7.40;;;3.47;;
76606;SDS011;65498;50.916;4.698;2023-02-22T12:03:24;6.90;;;3.20;;
76606;SDS011;65498;50.916;4.698;2023-02-22T12:11:31;6.72;;;3.30;;
76606;SDS011;65498;50.916;4.698;2023-02-22T12:17:00;7.47;;;3.35;;
76606;SDS011;65498;50.916;4.698;2023-02-22T12:20:00;6.85;;;3.17;;
76606;SDS011;65498;50.916;4.698;2023-02-22T12:22:46;6.27;;;3.10;;
76606;SDS011;65498;50.916;4.698;2023-02-22T12:25:18;5.78;;;2.95;;
76606;SDS011;65498;50.916;4.698;2023-02-22T12:30:30;7.10;;;3.40;;
76606;SDS011;65498;50.916;4.698;2023-02-22T12:33:02;6.47;;;3.22;;
76606;SDS011;65498;50.916;4.698;2023-02-22T12:35:32;6.67;;;3.25;;
76606;SDS011;65498;50.916;4.698;2023-02-22T12:43:27;6.67;;;3.00;;
76606;SDS011;65498;50.916;4.698;2023-02-22T12:46:03;6.37;;;3.15;;
76606;SDS011;65498;50.916;4.698;2023-02-22T12:48:45;6.65;;;3.12;;
76606;SDS011;65498;50.916;4.698;2023-02-22T12:51:53;6.47;;;3.08;;
76606;SDS011;65498;50.916;4.698;2023-02-22T12:54:50;8.15;;;3.70;;
76606;SDS011;65498;50.916;4.698;2023-02-22T12:59:50;6.85;;;3.08;;
76606;SDS011;65498;50.916;4.698;2023-02-22T13:02:21;7.40;;;3.10;;
76606;SDS011;65498;50.916;4.698;2023-02-22T13:04:50;6.22;;;3.00;;
76606;SDS011;65498;50.916;4.698;2023-02-22T13:07:27;6.10;;;3.22;;
76606;SDS011;65498;50.916;4.698;2023-02-22T13:12:34;7.30;;;3.37;;
76606;SDS011;65498;50.916;4.698;2023-02-22T13:15:17;7.53;;;3.90;;
76606;SDS011;65498;50.916;4.698;2023-02-22T13:25:29;6.47;;;3.22;;
76606;SDS011;65498;50.916;4.698;2023-02-22T13:31:24;6.03;;;3.00;;
76606;SDS011;65498;50.916;4.698;2023-02-22T13:34:00;6.85;;;3.30;;
76606;SDS011;65498;50.916;4.698;2023-02-22T13:48:26;7.40;;;3.55;;
76606;SDS011;65498;50.916;4.698;2023-02-22T13:50:46;12.03;;;4.62;;
76606;SDS011;65498;50.916;4.698;2023-02-22T13:53:13;7.58;;;4.10;;
76606;SDS011;65498;50.916;4.698;2023-02-22T13:55:42;7.03;;;3.17;;
76606;SDS011;65498;50.916;4.698;2023-02-22T13:58:12;7.42;;;3.35;;
76606;SDS011;65498;50.916;4.698;2023-02-22T14:00:41;8.38;;;3.65;;
76606;SDS011;65498;50.916;4.698;2023-02-22T14:06:06;7.97;;;3.20;;
76606;SDS011;65498;50.916;4.698;2023-02-22T14:11:38;8.45;;;4.03;;
76606;SDS011;65498;50.916;4.698;2023-02-22T14:16:24;7.83;;;3.33;;
76606;SDS011;65498;50.916;4.698;2023-02-22T14:19:00;11.03;;;4.28;;
76606;SDS011;65498;50.916;4.698;2023-02-22T14:21:31;8.90;;;4.17;;
76606;SDS011;65498;50.916;4.698;2023-02-22T14:24:11;7.25;;;3.75;;
76606;SDS011;65498;50.916;4.698;2023-02-22T14:34:21;7.30;;;3.40;;
76606;SDS011;65498;50.916;4.698;2023-02-22T14:39:31;7.58;;;3.70;;
76606;SDS011;65498;50.916;4.698;2023-02-22T14:42:12;7.65;;;3.75;;
76606;SDS011;65498;50.916;4.698;2023-02-22T14:45:02;8.83;;;4.55;;
76606;SDS011;65498;50.916;4.698;2023-02-22T14:47:28;11.78;;;3.87;;
76606;SDS011;65498;50.916;4.698;2023-02-22T14:50:03;21.10;;;6.50;;
76606;SDS011;65498;50.916;4.698;2023-02-22T14:52:31;11.48;;;4.78;;
76606;SDS011;65498;50.916;4.698;2023-02-22T14:55:05;10.05;;;4.33;;
76606;SDS011;65498;50.916;4.698;2023-02-22T15:06:14;8.73;;;5.00;;
76606;SDS011;65498;50.916;4.698;2023-02-22T15:08:44;8.20;;;4.30;;
76606;SDS011;65498;50.916;4.698;2023-02-22T15:13:52;8.28;;;4.20;;
76606;SDS011;65498;50.916;4.698;2023-02-22T15:16:21;9.30;;;4.62;;
76606;SDS011;65498;50.916;4.698;2023-02-22T15:18:58;7.90;;;4.22;;
76606;SDS011;65498;50.916;4.698;2023-02-22T15:21:27;9.10;;;4.87;;
76606;SDS011;65498;50.916;4.698;2023-02-22T15:24:01;8.43;;;4.20;;
76606;SDS011;65498;50.916;4.698;2023-02-22T15:26:35;8.65;;;4.50;;
76606;SDS011;65498;50.916;4.698;2023-02-22T15:29:12;7.60;;;3.98;;
76606;SDS011;65498;50.916;4.698;2023-02-22T15:31:40;8.15;;;4.22;;
76606;SDS011;65498;50.916;4.698;2023-02-22T15:36:50;8.83;;;4.78;;
76606;SDS011;65498;50.916;4.698;2023-02-22T15:39:26;7.95;;;4.35;;
76606;SDS011;65498;50.916;4.698;2023-02-22T15:42:01;9.35;;;5.20;;
76606;SDS011;65498;50.916;4.698;2023-02-22T15:44:34;9.00;;;4.62;;
76606;SDS011;65498;50.916;4.698;2023-02-22T15:47:08;8.13;;;4.47;;
76606;SDS011;65498;50.916;4.698;2023-02-22T15:49:39;8.18;;;4.90;;
76606;SDS011;65498;50.916;4.698;2023-02-22T15:52:17;8.28;;;5.00;;
76606;SDS011;65498;50.916;4.698;2023-02-22T15:57:16;8.73;;;4.97;;
76606;SDS011;65498;50.916;4.698;2023-02-22T15:59:47;8.28;;;4.72;;
76606;SDS011;65498;50.916;4.698;2023-02-22T16:02:27;8.95;;;4.75;;
76606;SDS011;65498;50.916;4.698;2023-02-22T16:04:57;7.83;;;4.65;;
76606;SDS011;65498;50.916;4.698;2023-02-22T16:07:29;11.83;;;6.12;;
76606;SDS011;65498;50.916;4.698;2023-02-22T16:09:57;9.90;;;5.15;;
76606;SDS011;65498;50.916;4.698;2023-02-22T16:14:53;9.28;;;5.22;;
76606;SDS011;65498;50.916;4.698;2023-02-22T16:22:46;9.93;;;5.03;;
76606;SDS011;65498;50.916;4.698;2023-02-22T16:27:58;9.63;;;6.00;;
76606;SDS011;65498;50.916;4.698;2023-02-22T16:30:39;9.55;;;5.80;;
76606;SDS011;65498;50.916;4.698;2023-02-22T16:33:08;12.05;;;6.03;;
76606;SDS011;65498;50.916;4.698;2023-02-22T16:35:41;9.83;;;5.97;;
76606;SDS011;65498;50.916;4.698;2023-02-22T16:38:13;9.18;;;6.08;;
76606;SDS011;65498;50.916;4.698;2023-02-22T16:40:47;10.70;;;6.05;;
76606;SDS011;65498;50.916;4.698;2023-02-22T16:43:16;10.72;;;6.62;;
76606;SDS011;65498;50.916;4.698;2023-02-22T16:45:45;11.48;;;6.53;;
76606;SDS011;65498;50.916;4.698;2023-02-22T16:48:17;9.95;;;5.87;;
76606;SDS011;65498;50.916;4.698;2023-02-22T16:50:46;10.35;;;6.53;;
76606;SDS011;65498;50.916;4.698;2023-02-22T16:53:16;9.93;;;6.33;;
76606;SDS011;65498;50.916;4.698;2023-02-22T16:55:46;11.00;;;6.55;;
76606;SDS011;65498;50.916;4.698;2023-02-22T16:58:15;11.77;;;6.80;;
76606;SDS011;65498;50.916;4.698;2023-02-22T17:00:44;12.65;;;7.33;;
76606;SDS011;65498;50.916;4.698;2023-02-22T17:03:16;11.40;;;6.92;;
76606;SDS011;65498;50.916;4.698;2023-02-22T17:05:44;14.85;;;7.10;;
76606;SDS011;65498;50.916;4.698;2023-02-22T17:08:12;11.55;;;6.60;;
76606;SDS011;65498;50.916;4.698;2023-02-22T17:10:41;13.65;;;7.53;;
76606;SDS011;65498;50.916;4.698;2023-02-22T17:13:11;12.30;;;6.75;;
76606;SDS011;65498;50.916;4.698;2023-02-22T17:15:40;17.23;;;9.13;;
76606;SDS011;65498;50.916;4.698;2023-02-22T17:18:11;16.57;;;7.67;;
76606;SDS011;65498;50.916;4.698;2023-02-22T17:20:41;17.12;;;7.80;;
76606;SDS011;65498;50.916;4.698;2023-02-22T17:23:10;15.00;;;7.83;;
76606;SDS011;65498;50.916;4.698;2023-02-22T17:25:46;12.70;;;7.42;;
76606;SDS011;65498;50.916;4.698;2023-02-22T17:28:18;18.70;;;7.78;;
76606;SDS011;65498;50.916;4.698;2023-02-22T17:30:48;14.53;;;8.03;;
76606;SDS011;65498;50.916;4.698;2023-02-22T17:33:20;14.98;;;7.50;;
76606;SDS011;65498;50.916;4.698;2023-02-22T17:35:58;14.07;;;7.50;;
76606;SDS011;65498;50.916;4.698;2023-02-22T17:38:23;15.32;;;7.37;;
76606;SDS011;65498;50.916;4.698;2023-02-22T17:40:53;14.05;;;7.53;;
76606;SDS011;65498;50.916;4.698;2023-02-22T17:43:21;14.15;;;7.62;;
76606;SDS011;65498;50.916;4.698;2023-02-22T17:45:49;12.73;;;7.10;;